« 南方+1 富山空港 2013/9/25 wed | トップページ | 空の日フェスティバル2013 東京国際空港 2013/9/28 sat »

2013/09/29

夕焼けの衝撃 調布 2013/9/28 sat

この週末、いくつかの場所を転戦した。2020TOKYOの招致も成功して、今年の国体は東京での開催。開会式場となった味の素スタジアムに夕焼けを追っかけてやってきた。

20130928_chofu_00ajinomoto

スポーツ祭東京2013として第68回国民体育大会本大会と第13回全国障害者スポーツ大会が行われる。今大会のマスコットは、「ゆりーと」と言うゆりかもめにちなんでか、この開会式にブルーインパルスが色を添える。

20130928_chofu_01ja18mp

会場周辺は、当然警備されるのだが、警察官は角々で見ますが以外にフレンドリーな感じでスタジアム近辺に進出できました。上空では警視庁のへりが、ヘリテレで監視しています。

JA18MP B412 警視庁

RJTF 280700Z 14012KT 9999 FEW040 SCT050 BKN/// 23/12 Q1021

20130928_chofu_02ja6726

JA6726 B412 警視庁

17時をまわりました。式の進行は中にいないので情報を持たないが、ワクワクしながら待ちます。今回は、ほんとの一発勝負。写真でうまく押さえられるか、手に汗握る。

20130928_chofu_03bi

17:05 会場東からレベルサンライズ。うぅぅぅ、機影を捉えるのが精一杯で、会場を写しこむことに失敗だなぁ。

20130928_chofu_04bi

西側で編隊集合に向かう#3

20130928_chofu_05bi

北から南へ#5のナイフエッジパス

20130928_chofu_06bi

西の夕焼け空で編隊集合、展開基地の入間へ帰還します。

この1分のためだけに調布に出張ったが、自分的には50点でした。盛大な大会開催と、東京オリンピックに向けて期待が膨らむ一瞬でした。

|

« 南方+1 富山空港 2013/9/25 wed | トップページ | 空の日フェスティバル2013 東京国際空港 2013/9/28 sat »

BI」カテゴリの記事

場外」カテゴリの記事

コメント

コメントを書く



(ウェブ上には掲載しません)


コメントは記事投稿者が公開するまで表示されません。



トラックバック


この記事へのトラックバック一覧です: 夕焼けの衝撃 調布 2013/9/28 sat:

« 南方+1 富山空港 2013/9/25 wed | トップページ | 空の日フェスティバル2013 東京国際空港 2013/9/28 sat »